Coldstream, Australia
Current Conditions -  °F | °C
As of 7:30 AM on Sunday 26 Oct 2014 (Local Time) from YMEN Reporting Station
Overcast Overcast  
Wind Chill: 55°   Ceiling: 1700
Heat Index: 55°   Visibility: 6mi
Dew Point: 50°   Wind: 8mph
Humidity: 82%   Direction: 230°SW
Pressure: 29.94"   Gusts: NA
Location:  37.72°S, 145.38°E
Report Text: YMEN 252030Z AUTO 23007KT 9999 // OVC017 13/10 Q1014
Loading
Personal Weather Stations






























Interactive Weather Map
Tropical Storm Tracking
New forecast layout! Learn more

10-Day Weather Forecast

Advertisements
Track Severe Weather on mobile